Rush Springs, Oklahoma
Current Conditions -  °F | °C
As of 1:55 PM on Saturday 25 Oct 2014 (Local Time) from KDUC Reporting Station
Clear Clear  
Wind Chill: 88°   Ceiling: Unl
Heat Index: 88°   Visibility: 10mi
Dew Point: 55°   Wind: 3mph
Humidity: 33%   Direction: 240°WSW
Pressure: 30.08"   Gusts: NA
Location:  34.78°N, 97.96°W
Report Text: KDUC 251855Z AUTO 24003KT 10SM CLR 31/13 A3008 RMK AO2
Loading
Personal Weather Stations






























Interactive Weather Map New forecast layout! Learn more

10-Day Weather Forecast

Advertisements
Track Severe Weather on mobile